CheckWX is a tool to help pilots better visualize weather data.  It is not intended as a substitute for an official pre-flight weather briefing.

16:51:54 UTC

KSYN METAR
Stanton Airfield Airport
Stanton, Minnesota, USA
Current

17 mins ago

KSYN 201635Z AUTO 20004KT 10SM CLR M20/M23 A3077 RMK AO2 T11961230
Observed
Feb-20 @ 16:35 UTC
Wind
  • 200° at 4 KTS
Visibility
10 SM
Flight Rules
VFR
Cloud Levels
  • Clear skies
Temperature
-20°C / -4°F
Dewpoint
-23°C / -9°F
Humidity
77%
Altimeter
30.77" Hg
Pressure
1042.02 hPa
Previous

37 mins ago

KSYN 201615Z AUTO 20004KT 10SM CLR M21/M23 A3077 RMK AO2 T12061233
Observed
Feb-20 @ 16:15 UTC
Wind
  • 200° at 4 KTS
Visibility
10 SM
Flight Rules
VFR
Cloud Levels
  • Clear skies
Temperature
-21°C / -6°F
Dewpoint
-23°C / -9°F
Humidity
84%
Altimeter
30.77" Hg
Pressure
1042.02 hPa
Previous

57 mins ago

KSYN 201555Z AUTO 19004KT 10SM CLR M21/M24 A3077 RMK AO2 T12151242
Observed
Feb-20 @ 15:55 UTC
Wind
  • 190° at 4 KTS
Visibility
10 SM
Flight Rules
VFR
Cloud Levels
  • Clear skies
Temperature
-22°C / -8°F
Dewpoint
-24°C / -11°F
Humidity
84%
Altimeter
30.77" Hg
Pressure
1042.02 hPa